sensor_id;sensor_type;location;lat;lon;timestamp;temperature;humidity
73576;DHT22;61859;49.204;8.140;2024-03-25T00:01:33;5.40;95.60
73576;DHT22;61859;49.204;8.140;2024-03-25T00:03:59;5.40;95.80
73576;DHT22;61859;49.204;8.140;2024-03-25T00:06:24;5.40;95.70
73576;DHT22;61859;49.204;8.140;2024-03-25T00:08:50;5.30;95.80
73576;DHT22;61859;49.204;8.140;2024-03-25T00:11:16;5.50;95.70
73576;DHT22;61859;49.204;8.140;2024-03-25T00:13:41;5.50;95.80
73576;DHT22;61859;49.204;8.140;2024-03-25T00:16:07;5.20;95.80
73576;DHT22;61859;49.204;8.140;2024-03-25T00:18:33;5.10;96.20
73576;DHT22;61859;49.204;8.140;2024-03-25T00:20:58;5.20;96.40
73576;DHT22;61859;49.204;8.140;2024-03-25T00:23:24;5.20;96.30
73576;DHT22;61859;49.204;8.140;2024-03-25T00:25:50;5.10;96.50
73576;DHT22;61859;49.204;8.140;2024-03-25T00:28:15;5.10;96.20
73576;DHT22;61859;49.204;8.140;2024-03-25T00:30:41;5.30;96.20
73576;DHT22;61859;49.204;8.140;2024-03-25T00:33:06;5.30;96.20
73576;DHT22;61859;49.204;8.140;2024-03-25T00:35:33;5.30;96.10
73576;DHT22;61859;49.204;8.140;2024-03-25T00:37:59;5.30;96.10
73576;DHT22;61859;49.204;8.140;2024-03-25T00:40:25;5.40;96.20
73576;DHT22;61859;49.204;8.140;2024-03-25T00:42:50;5.30;96.00
73576;DHT22;61859;49.204;8.140;2024-03-25T00:45:16;5.50;96.00
73576;DHT22;61859;49.204;8.140;2024-03-25T00:47:41;5.50;96.00
73576;DHT22;61859;49.204;8.140;2024-03-25T00:50:07;5.40;96.00
73576;DHT22;61859;49.204;8.140;2024-03-25T00:52:34;5.40;96.10
73576;DHT22;61859;49.204;8.140;2024-03-25T00:55:00;5.50;96.10
73576;DHT22;61859;49.204;8.140;2024-03-25T00:57:26;5.50;95.90
73576;DHT22;61859;49.204;8.140;2024-03-25T00:59:51;5.40;96.00
73576;DHT22;61859;49.204;8.140;2024-03-25T01:02:17;5.40;96.00
73576;DHT22;61859;49.204;8.140;2024-03-25T01:04:42;5.40;96.10
73576;DHT22;61859;49.204;8.140;2024-03-25T01:07:08;5.50;96.30
73576;DHT22;61859;49.204;8.140;2024-03-25T01:09:34;5.30;96.60
73576;DHT22;61859;49.204;8.140;2024-03-25T01:11:59;5.30;96.90
73576;DHT22;61859;49.204;8.140;2024-03-25T01:14:25;5.20;96.90
73576;DHT22;61859;49.204;8.140;2024-03-25T01:16:52;5.30;97.10
73576;DHT22;61859;49.204;8.140;2024-03-25T01:19:18;5.30;97.10
73576;DHT22;61859;49.204;8.140;2024-03-25T01:21:43;5.30;97.20
73576;DHT22;61859;49.204;8.140;2024-03-25T01:24:09;5.30;97.30
73576;DHT22;61859;49.204;8.140;2024-03-25T01:26:35;5.30;97.40
73576;DHT22;61859;49.204;8.140;2024-03-25T01:29:01;5.30;97.20
73576;DHT22;61859;49.204;8.140;2024-03-25T01:31:27;5.20;97.30
73576;DHT22;61859;49.204;8.140;2024-03-25T01:33:52;5.20;97.40
73576;DHT22;61859;49.204;8.140;2024-03-25T01:36:18;5.10;97.20
73576;DHT22;61859;49.204;8.140;2024-03-25T01:38:46;5.20;97.30
73576;DHT22;61859;49.204;8.140;2024-03-25T01:41:13;5.20;97.20
73576;DHT22;61859;49.204;8.140;2024-03-25T01:43:40;5.30;97.20
73576;DHT22;61859;49.204;8.140;2024-03-25T01:46:06;5.20;97.20
73576;DHT22;61859;49.204;8.140;2024-03-25T01:48:32;5.20;97.10
73576;DHT22;61859;49.204;8.140;2024-03-25T01:51:00;5.10;97.20
73576;DHT22;61859;49.204;8.140;2024-03-25T01:53:28;5.20;97.10
73576;DHT22;61859;49.204;8.140;2024-03-25T01:55:55;5.30;97.20
73576;DHT22;61859;49.204;8.140;2024-03-25T01:58:22;5.20;97.10
73576;DHT22;61859;49.204;8.140;2024-03-25T02:00:50;5.30;97.00
73576;DHT22;61859;49.204;8.140;2024-03-25T02:03:16;5.00;97.20
73576;DHT22;61859;49.204;8.140;2024-03-25T02:05:42;5.20;97.30
73576;DHT22;61859;49.204;8.140;2024-03-25T02:08:09;5.10;97.30
73576;DHT22;61859;49.204;8.140;2024-03-25T02:10:35;5.30;97.30
73576;DHT22;61859;49.204;8.140;2024-03-25T02:13:02;5.00;97.20
73576;DHT22;61859;49.204;8.140;2024-03-25T02:15:27;4.90;97.40
73576;DHT22;61859;49.204;8.140;2024-03-25T02:17:53;5.00;97.30
73576;DHT22;61859;49.204;8.140;2024-03-25T02:20:18;4.90;97.50
73576;DHT22;61859;49.204;8.140;2024-03-25T02:22:44;5.00;97.70
73576;DHT22;61859;49.204;8.140;2024-03-25T02:25:10;5.00;97.80
73576;DHT22;61859;49.204;8.140;2024-03-25T02:27:39;5.10;97.80
73576;DHT22;61859;49.204;8.140;2024-03-25T02:30:09;4.80;97.80
73576;DHT22;61859;49.204;8.140;2024-03-25T02:32:38;4.90;98.00
73576;DHT22;61859;49.204;8.140;2024-03-25T02:35:06;4.90;98.10
73576;DHT22;61859;49.204;8.140;2024-03-25T02:37:33;5.00;98.10
73576;DHT22;61859;49.204;8.140;2024-03-25T02:39:59;4.80;98.30
73576;DHT22;61859;49.204;8.140;2024-03-25T02:42:26;4.80;98.40
73576;DHT22;61859;49.204;8.140;2024-03-25T02:44:54;4.80;98.30
73576;DHT22;61859;49.204;8.140;2024-03-25T02:47:19;4.80;98.40
73576;DHT22;61859;49.204;8.140;2024-03-25T02:49:45;4.70;98.60
73576;DHT22;61859;49.204;8.140;2024-03-25T02:52:11;4.60;98.80
73576;DHT22;61859;49.204;8.140;2024-03-25T02:54:36;4.70;98.80
73576;DHT22;61859;49.204;8.140;2024-03-25T02:57:02;4.70;98.80
73576;DHT22;61859;49.204;8.140;2024-03-25T02:59:28;4.60;98.80
73576;DHT22;61859;49.204;8.140;2024-03-25T03:01:53;4.50;98.90
73576;DHT22;61859;49.204;8.140;2024-03-25T03:04:19;4.60;99.10
73576;DHT22;61859;49.204;8.140;2024-03-25T03:06:44;4.30;99.00
73576;DHT22;61859;49.204;8.140;2024-03-25T03:09:10;4.70;99.30
73576;DHT22;61859;49.204;8.140;2024-03-25T03:11:35;4.40;99.30
73576;DHT22;61859;49.204;8.140;2024-03-25T03:14:01;4.40;99.30
73576;DHT22;61859;49.204;8.140;2024-03-25T03:16:26;4.30;99.30
73576;DHT22;61859;49.204;8.140;2024-03-25T03:18:52;4.30;99.40
73576;DHT22;61859;49.204;8.140;2024-03-25T03:21:18;4.40;99.50
73576;DHT22;61859;49.204;8.140;2024-03-25T03:23:43;4.40;99.60
73576;DHT22;61859;49.204;8.140;2024-03-25T03:26:09;4.50;99.70
73576;DHT22;61859;49.204;8.140;2024-03-25T03:28:34;4.50;99.70
73576;DHT22;61859;49.204;8.140;2024-03-25T03:31:00;4.30;99.60
73576;DHT22;61859;49.204;8.140;2024-03-25T03:33:25;4.50;99.60
73576;DHT22;61859;49.204;8.140;2024-03-25T03:35:52;4.20;99.60
73576;DHT22;61859;49.204;8.140;2024-03-25T03:38:17;4.30;99.40
73576;DHT22;61859;49.204;8.140;2024-03-25T03:40:46;4.40;99.60
73576;DHT22;61859;49.204;8.140;2024-03-25T03:43:20;4.50;99.50
73576;DHT22;61859;49.204;8.140;2024-03-25T03:45:46;4.50;99.50
73576;DHT22;61859;49.204;8.140;2024-03-25T03:48:11;4.50;99.10
73576;DHT22;61859;49.204;8.140;2024-03-25T03:50:37;4.60;99.10
73576;DHT22;61859;49.204;8.140;2024-03-25T03:53:02;4.30;98.90
73576;DHT22;61859;49.204;8.140;2024-03-25T03:55:28;4.50;98.90
73576;DHT22;61859;49.204;8.140;2024-03-25T03:57:53;4.40;98.90
73576;DHT22;61859;49.204;8.140;2024-03-25T04:00:19;4.30;98.70
73576;DHT22;61859;49.204;8.140;2024-03-25T04:02:44;4.40;98.80
73576;DHT22;61859;49.204;8.140;2024-03-25T04:05:10;4.30;98.80
73576;DHT22;61859;49.204;8.140;2024-03-25T04:07:35;4.20;99.00
73576;DHT22;61859;49.204;8.140;2024-03-25T04:10:01;4.10;99.10
73576;DHT22;61859;49.204;8.140;2024-03-25T04:12:26;4.30;99.20
73576;DHT22;61859;49.204;8.140;2024-03-25T04:14:52;4.30;99.30
73576;DHT22;61859;49.204;8.140;2024-03-25T04:17:21;4.30;99.20
73576;DHT22;61859;49.204;8.140;2024-03-25T04:19:50;4.10;99.30
73576;DHT22;61859;49.204;8.140;2024-03-25T04:22:16;4.30;99.30
73576;DHT22;61859;49.204;8.140;2024-03-25T04:24:43;4.30;99.30
73576;DHT22;61859;49.204;8.140;2024-03-25T04:27:09;4.20;99.40
73576;DHT22;61859;49.204;8.140;2024-03-25T04:29:35;4.20;99.50
73576;DHT22;61859;49.204;8.140;2024-03-25T04:32:01;4.20;99.60
73576;DHT22;61859;49.204;8.140;2024-03-25T04:34:27;3.90;99.70
73576;DHT22;61859;49.204;8.140;2024-03-25T04:36:53;3.80;99.80
73576;DHT22;61859;49.204;8.140;2024-03-25T04:39:19;4.00;99.90
73576;DHT22;61859;49.204;8.140;2024-03-25T04:41:44;4.00;99.90
73576;DHT22;61859;49.204;8.140;2024-03-25T04:44:11;3.60;99.90
73576;DHT22;61859;49.204;8.140;2024-03-25T04:46:37;3.90;99.90
73576;DHT22;61859;49.204;8.140;2024-03-25T04:49:02;3.90;99.90
73576;DHT22;61859;49.204;8.140;2024-03-25T04:51:28;3.80;99.90
73576;DHT22;61859;49.204;8.140;2024-03-25T04:53:53;3.70;99.90
73576;DHT22;61859;49.204;8.140;2024-03-25T04:56:19;3.80;99.90
73576;DHT22;61859;49.204;8.140;2024-03-25T04:58:45;3.80;99.90
73576;DHT22;61859;49.204;8.140;2024-03-25T05:01:11;3.90;99.90
73576;DHT22;61859;49.204;8.140;2024-03-25T05:03:36;3.80;99.90
73576;DHT22;61859;49.204;8.140;2024-03-25T05:06:02;3.60;99.90
73576;DHT22;61859;49.204;8.140;2024-03-25T05:08:27;3.80;99.90
73576;DHT22;61859;49.204;8.140;2024-03-25T05:10:53;3.80;99.90
73576;DHT22;61859;49.204;8.140;2024-03-25T05:13:18;3.70;99.90
73576;DHT22;61859;49.204;8.140;2024-03-25T05:15:51;3.90;99.90
73576;DHT22;61859;49.204;8.140;2024-03-25T05:18:18;3.80;99.90
73576;DHT22;61859;49.204;8.140;2024-03-25T05:20:43;3.60;99.90
73576;DHT22;61859;49.204;8.140;2024-03-25T05:23:09;3.70;99.90
73576;DHT22;61859;49.204;8.140;2024-03-25T05:25:35;3.60;99.90
73576;DHT22;61859;49.204;8.140;2024-03-25T05:28:01;3.60;99.90
73576;DHT22;61859;49.204;8.140;2024-03-25T05:30:26;3.60;99.90
73576;DHT22;61859;49.204;8.140;2024-03-25T05:32:52;3.60;99.90
73576;DHT22;61859;49.204;8.140;2024-03-25T05:35:17;3.60;99.90
73576;DHT22;61859;49.204;8.140;2024-03-25T05:37:43;3.60;99.90
73576;DHT22;61859;49.204;8.140;2024-03-25T05:40:09;3.50;99.90
73576;DHT22;61859;49.204;8.140;2024-03-25T05:42:37;3.20;99.90
73576;DHT22;61859;49.204;8.140;2024-03-25T05:45:03;3.30;99.90
73576;DHT22;61859;49.204;8.140;2024-03-25T05:47:29;2.90;99.90
73576;DHT22;61859;49.204;8.140;2024-03-25T05:49:54;3.10;99.90
73576;DHT22;61859;49.204;8.140;2024-03-25T05:52:20;2.90;99.90
73576;DHT22;61859;49.204;8.140;2024-03-25T05:54:45;3.10;99.90
73576;DHT22;61859;49.204;8.140;2024-03-25T05:57:11;3.20;99.90
73576;DHT22;61859;49.204;8.140;2024-03-25T05:59:36;2.90;99.90
73576;DHT22;61859;49.204;8.140;2024-03-25T06:02:02;3.00;99.90
73576;DHT22;61859;49.204;8.140;2024-03-25T06:04:28;3.10;99.90
73576;DHT22;61859;49.204;8.140;2024-03-25T06:06:53;3.10;99.90
73576;DHT22;61859;49.204;8.140;2024-03-25T06:09:19;2.90;99.90
73576;DHT22;61859;49.204;8.140;2024-03-25T06:11:44;3.30;99.90
73576;DHT22;61859;49.204;8.140;2024-03-25T06:14:10;3.30;99.90
73576;DHT22;61859;49.204;8.140;2024-03-25T06:16:35;3.40;99.90
73576;DHT22;61859;49.204;8.140;2024-03-25T06:19:01;3.50;99.90
73576;DHT22;61859;49.204;8.140;2024-03-25T06:21:26;3.80;99.90
73576;DHT22;61859;49.204;8.140;2024-03-25T06:23:52;3.50;99.90
73576;DHT22;61859;49.204;8.140;2024-03-25T06:26:18;3.70;99.90
73576;DHT22;61859;49.204;8.140;2024-03-25T06:28:44;4.00;99.90
73576;DHT22;61859;49.204;8.140;2024-03-25T06:31:11;4.20;99.90
73576;DHT22;61859;49.204;8.140;2024-03-25T06:33:55;4.20;99.90
73576;DHT22;61859;49.204;8.140;2024-03-25T06:36:39;4.40;99.60
73576;DHT22;61859;49.204;8.140;2024-03-25T06:39:04;4.20;99.60
73576;DHT22;61859;49.204;8.140;2024-03-25T06:41:30;4.20;99.40
73576;DHT22;61859;49.204;8.140;2024-03-25T06:43:55;4.20;99.60
73576;DHT22;61859;49.204;8.140;2024-03-25T06:46:21;4.30;99.70
73576;DHT22;61859;49.204;8.140;2024-03-25T06:48:47;4.40;99.60
73576;DHT22;61859;49.204;8.140;2024-03-25T06:51:12;4.30;99.40
73576;DHT22;61859;49.204;8.140;2024-03-25T06:53:38;4.60;98.90
73576;DHT22;61859;49.204;8.140;2024-03-25T06:56:03;4.80;98.70
73576;DHT22;61859;49.204;8.140;2024-03-25T06:58:29;5.20;98.20
73576;DHT22;61859;49.204;8.140;2024-03-25T07:00:56;5.20;97.00
73576;DHT22;61859;49.204;8.140;2024-03-25T07:03:23;5.50;96.50
73576;DHT22;61859;49.204;8.140;2024-03-25T07:05:50;5.50;95.70
73576;DHT22;61859;49.204;8.140;2024-03-25T07:08:20;5.80;95.30
73576;DHT22;61859;49.204;8.140;2024-03-25T07:10:46;5.90;94.40
73576;DHT22;61859;49.204;8.140;2024-03-25T07:13:11;6.00;94.00
73576;DHT22;61859;49.204;8.140;2024-03-25T07:15:38;6.20;93.60
73576;DHT22;61859;49.204;8.140;2024-03-25T07:18:04;6.40;93.00
73576;DHT22;61859;49.204;8.140;2024-03-25T07:20:30;6.60;92.60
73576;DHT22;61859;49.204;8.140;2024-03-25T07:22:56;6.90;91.20
73576;DHT22;61859;49.204;8.140;2024-03-25T07:25:25;7.10;91.10
73576;DHT22;61859;49.204;8.140;2024-03-25T07:27:51;7.40;90.10
73576;DHT22;61859;49.204;8.140;2024-03-25T07:30:18;7.50;88.80
73576;DHT22;61859;49.204;8.140;2024-03-25T07:32:43;7.60;87.80
73576;DHT22;61859;49.204;8.140;2024-03-25T07:35:10;7.60;87.40
73576;DHT22;61859;49.204;8.140;2024-03-25T07:37:37;7.60;87.40
73576;DHT22;61859;49.204;8.140;2024-03-25T07:40:03;7.80;87.80
73576;DHT22;61859;49.204;8.140;2024-03-25T07:42:29;7.90;87.20
73576;DHT22;61859;49.204;8.140;2024-03-25T07:44:55;7.90;86.60
73576;DHT22;61859;49.204;8.140;2024-03-25T07:47:21;7.90;86.80
73576;DHT22;61859;49.204;8.140;2024-03-25T07:49:46;7.90;86.20
73576;DHT22;61859;49.204;8.140;2024-03-25T07:52:12;7.90;86.00
73576;DHT22;61859;49.204;8.140;2024-03-25T07:54:39;8.30;85.60
73576;DHT22;61859;49.204;8.140;2024-03-25T07:57:04;8.50;85.40
73576;DHT22;61859;49.204;8.140;2024-03-25T07:59:30;8.70;84.60
73576;DHT22;61859;49.204;8.140;2024-03-25T08:01:56;8.90;84.20
73576;DHT22;61859;49.204;8.140;2024-03-25T08:04:22;8.90;83.10
73576;DHT22;61859;49.204;8.140;2024-03-25T08:06:48;8.80;83.80
73576;DHT22;61859;49.204;8.140;2024-03-25T08:09:13;9.00;83.70
73576;DHT22;61859;49.204;8.140;2024-03-25T08:11:41;9.40;83.20
73576;DHT22;61859;49.204;8.140;2024-03-25T08:14:09;9.50;80.70
73576;DHT22;61859;49.204;8.140;2024-03-25T08:16:34;9.70;79.70
73576;DHT22;61859;49.204;8.140;2024-03-25T08:19:00;9.50;80.30
73576;DHT22;61859;49.204;8.140;2024-03-25T08:21:26;9.50;81.00
73576;DHT22;61859;49.204;8.140;2024-03-25T08:23:51;9.70;81.40
73576;DHT22;61859;49.204;8.140;2024-03-25T08:26:17;10.00;79.80
73576;DHT22;61859;49.204;8.140;2024-03-25T08:28:42;10.30;79.40
73576;DHT22;61859;49.204;8.140;2024-03-25T08:31:08;10.50;76.80
73576;DHT22;61859;49.204;8.140;2024-03-25T08:33:33;10.20;77.50
73576;DHT22;61859;49.204;8.140;2024-03-25T08:35:59;10.30;77.50
73576;DHT22;61859;49.204;8.140;2024-03-25T08:38:25;10.50;77.40
73576;DHT22;61859;49.204;8.140;2024-03-25T08:40:51;10.50;77.20
73576;DHT22;61859;49.204;8.140;2024-03-25T08:43:16;10.50;76.30
73576;DHT22;61859;49.204;8.140;2024-03-25T08:45:43;10.60;77.00
73576;DHT22;61859;49.204;8.140;2024-03-25T08:48:08;10.50;76.90
73576;DHT22;61859;49.204;8.140;2024-03-25T08:50:34;10.60;76.50
73576;DHT22;61859;49.204;8.140;2024-03-25T08:52:59;10.80;75.90
73576;DHT22;61859;49.204;8.140;2024-03-25T08:55:25;11.00;74.80
73576;DHT22;61859;49.204;8.140;2024-03-25T08:57:52;11.40;74.50
73576;DHT22;61859;49.204;8.140;2024-03-25T09:00:18;11.80;71.40
73576;DHT22;61859;49.204;8.140;2024-03-25T09:02:43;12.00;70.90
73576;DHT22;61859;49.204;8.140;2024-03-25T09:05:09;12.40;69.30
73576;DHT22;61859;49.204;8.140;2024-03-25T09:07:35;12.70;68.90
73576;DHT22;61859;49.204;8.140;2024-03-25T09:10:01;13.10;66.10
73576;DHT22;61859;49.204;8.140;2024-03-25T09:12:46;13.50;65.10
73576;DHT22;61859;49.204;8.140;2024-03-25T09:15:11;13.90;64.20
73576;DHT22;61859;49.204;8.140;2024-03-25T09:17:37;14.30;63.90
73576;DHT22;61859;49.204;8.140;2024-03-25T09:20:03;14.30;63.90
73576;DHT22;61859;49.204;8.140;2024-03-25T09:22:44;14.60;62.30
73576;DHT22;61859;49.204;8.140;2024-03-25T09:25:10;14.80;60.50
73576;DHT22;61859;49.204;8.140;2024-03-25T09:27:36;15.00;59.50
73576;DHT22;61859;49.204;8.140;2024-03-25T09:30:03;15.20;58.50
73576;DHT22;61859;49.204;8.140;2024-03-25T09:32:33;15.20;56.90
73576;DHT22;61859;49.204;8.140;2024-03-25T09:34:58;15.10;54.90
73576;DHT22;61859;49.204;8.140;2024-03-25T09:37:24;14.90;54.30
73576;DHT22;61859;49.204;8.140;2024-03-25T09:39:49;15.20;53.90
73576;DHT22;61859;49.204;8.140;2024-03-25T09:42:22;15.40;54.90
73576;DHT22;61859;49.204;8.140;2024-03-25T09:44:51;15.70;52.80
73576;DHT22;61859;49.204;8.140;2024-03-25T09:47:16;15.80;52.90
73576;DHT22;61859;49.204;8.140;2024-03-25T09:49:42;15.90;51.20
73576;DHT22;61859;49.204;8.140;2024-03-25T09:52:09;15.80;50.50
73576;DHT22;61859;49.204;8.140;2024-03-25T09:54:34;15.60;50.90
73576;DHT22;61859;49.204;8.140;2024-03-25T09:57:00;15.60;48.20
73576;DHT22;61859;49.204;8.140;2024-03-25T09:59:27;15.80;47.00
73576;DHT22;61859;49.204;8.140;2024-03-25T10:01:54;15.80;46.90
73576;DHT22;61859;49.204;8.140;2024-03-25T10:04:20;16.00;47.00
73576;DHT22;61859;49.204;8.140;2024-03-25T10:06:45;16.40;48.00
73576;DHT22;61859;49.204;8.140;2024-03-25T10:09:11;16.50;48.60
73576;DHT22;61859;49.204;8.140;2024-03-25T10:11:37;16.50;48.10
73576;DHT22;61859;49.204;8.140;2024-03-25T10:14:02;16.50;46.80
73576;DHT22;61859;49.204;8.140;2024-03-25T10:16:28;16.40;48.30
73576;DHT22;61859;49.204;8.140;2024-03-25T10:18:54;16.40;49.20
73576;DHT22;61859;49.204;8.140;2024-03-25T10:21:23;16.60;49.40
73576;DHT22;61859;49.204;8.140;2024-03-25T10:23:49;16.40;48.90
73576;DHT22;61859;49.204;8.140;2024-03-25T10:26:31;16.40;48.70
73576;DHT22;61859;49.204;8.140;2024-03-25T10:29:06;16.80;48.60
73576;DHT22;61859;49.204;8.140;2024-03-25T10:31:32;16.70;50.00
73576;DHT22;61859;49.204;8.140;2024-03-25T10:33:58;16.60;48.90
73576;DHT22;61859;49.204;8.140;2024-03-25T10:36:25;16.60;49.20
73576;DHT22;61859;49.204;8.140;2024-03-25T10:38:55;16.60;50.00
73576;DHT22;61859;49.204;8.140;2024-03-25T10:41:22;16.80;49.20
73576;DHT22;61859;49.204;8.140;2024-03-25T10:43:49;17.00;48.50
73576;DHT22;61859;49.204;8.140;2024-03-25T10:46:18;17.30;46.60
73576;DHT22;61859;49.204;8.140;2024-03-25T10:51:26;17.60;46.50
73576;DHT22;61859;49.204;8.140;2024-03-25T10:53:52;18.10;45.00
73576;DHT22;61859;49.204;8.140;2024-03-25T10:56:21;18.30;44.70
73576;DHT22;61859;49.204;8.140;2024-03-25T10:58:48;18.50;43.30
73576;DHT22;61859;49.204;8.140;2024-03-25T11:01:16;18.40;43.80
73576;DHT22;61859;49.204;8.140;2024-03-25T11:03:42;18.60;42.90
73576;DHT22;61859;49.204;8.140;2024-03-25T11:06:08;18.50;42.20
73576;DHT22;61859;49.204;8.140;2024-03-25T11:08:33;18.60;42.40
73576;DHT22;61859;49.204;8.140;2024-03-25T11:11:00;18.80;43.20
73576;DHT22;61859;49.204;8.140;2024-03-25T11:13:27;19.30;41.70
73576;DHT22;61859;49.204;8.140;2024-03-25T11:15:52;19.60;40.60
73576;DHT22;61859;49.204;8.140;2024-03-25T11:18:22;19.70;39.90
73576;DHT22;61859;49.204;8.140;2024-03-25T11:21:04;20.20;40.40
73576;DHT22;61859;49.204;8.140;2024-03-25T11:23:43;20.20;39.60
73576;DHT22;61859;49.204;8.140;2024-03-25T11:26:24;20.30;38.30
73576;DHT22;61859;49.204;8.140;2024-03-25T11:28:50;20.70;38.10
73576;DHT22;61859;49.204;8.140;2024-03-25T11:31:20;20.90;37.00
73576;DHT22;61859;49.204;8.140;2024-03-25T11:33:46;21.20;37.20
73576;DHT22;61859;49.204;8.140;2024-03-25T11:36:12;21.50;38.00
73576;DHT22;61859;49.204;8.140;2024-03-25T11:38:38;22.00;36.50
73576;DHT22;61859;49.204;8.140;2024-03-25T11:41:07;22.00;36.10
73576;DHT22;61859;49.204;8.140;2024-03-25T11:43:33;21.50;37.10
73576;DHT22;61859;49.204;8.140;2024-03-25T11:45:59;21.80;36.80
73576;DHT22;61859;49.204;8.140;2024-03-25T11:48:24;22.40;36.70
73576;DHT22;61859;49.204;8.140;2024-03-25T11:50:50;22.90;36.00
73576;DHT22;61859;49.204;8.140;2024-03-25T11:53:16;23.20;35.20
73576;DHT22;61859;49.204;8.140;2024-03-25T11:55:46;23.70;34.40
73576;DHT22;61859;49.204;8.140;2024-03-25T11:58:12;24.20;34.80
73576;DHT22;61859;49.204;8.140;2024-03-25T12:00:47;24.50;35.10
73576;DHT22;61859;49.204;8.140;2024-03-25T12:03:19;25.00;34.30
73576;DHT22;61859;49.204;8.140;2024-03-25T12:05:45;25.00;33.90
73576;DHT22;61859;49.204;8.140;2024-03-25T12:08:10;25.40;33.20
73576;DHT22;61859;49.204;8.140;2024-03-25T12:10:38;25.80;32.80
73576;DHT22;61859;49.204;8.140;2024-03-25T12:13:22;26.40;32.80
73576;DHT22;61859;49.204;8.140;2024-03-25T12:15:50;26.80;31.00
73576;DHT22;61859;49.204;8.140;2024-03-25T12:18:16;27.20;31.10
73576;DHT22;61859;49.204;8.140;2024-03-25T12:20:42;27.40;31.20
73576;DHT22;61859;49.204;8.140;2024-03-25T12:23:10;27.60;31.40
73576;DHT22;61859;49.204;8.140;2024-03-25T12:25:35;27.30;31.90
73576;DHT22;61859;49.204;8.140;2024-03-25T12:28:01;27.20;31.40
73576;DHT22;61859;49.204;8.140;2024-03-25T12:30:26;27.40;31.10
73576;DHT22;61859;49.204;8.140;2024-03-25T12:32:52;27.60;31.10
73576;DHT22;61859;49.204;8.140;2024-03-25T12:35:19;27.80;30.70
73576;DHT22;61859;49.204;8.140;2024-03-25T12:37:47;28.00;30.80
73576;DHT22;61859;49.204;8.140;2024-03-25T12:40:25;27.80;30.80
73576;DHT22;61859;49.204;8.140;2024-03-25T12:42:52;27.10;30.70
73576;DHT22;61859;49.204;8.140;2024-03-25T12:45:20;26.80;30.60
73576;DHT22;61859;49.204;8.140;2024-03-25T12:47:46;26.40;31.30
73576;DHT22;61859;49.204;8.140;2024-03-25T12:50:12;26.30;30.60
73576;DHT22;61859;49.204;8.140;2024-03-25T12:52:37;26.70;30.30
73576;DHT22;61859;49.204;8.140;2024-03-25T12:55:03;26.90;30.10
73576;DHT22;61859;49.204;8.140;2024-03-25T12:57:29;26.90;30.80
73576;DHT22;61859;49.204;8.140;2024-03-25T12:59:55;27.20;30.30
73576;DHT22;61859;49.204;8.140;2024-03-25T13:02:20;27.60;29.90
73576;DHT22;61859;49.204;8.140;2024-03-25T13:04:46;27.90;29.70
73576;DHT22;61859;49.204;8.140;2024-03-25T13:07:12;27.60;30.00
73576;DHT22;61859;49.204;8.140;2024-03-25T13:09:37;27.40;29.80
73576;DHT22;61859;49.204;8.140;2024-03-25T13:12:03;27.20;29.90
73576;DHT22;61859;49.204;8.140;2024-03-25T13:14:29;27.00;29.80
73576;DHT22;61859;49.204;8.140;2024-03-25T13:16:55;26.50;30.30
73576;DHT22;61859;49.204;8.140;2024-03-25T13:19:21;26.40;30.50
73576;DHT22;61859;49.204;8.140;2024-03-25T13:21:46;26.60;30.20
73576;DHT22;61859;49.204;8.140;2024-03-25T13:24:13;27.10;29.30
73576;DHT22;61859;49.204;8.140;2024-03-25T13:26:39;27.50;30.40
73576;DHT22;61859;49.204;8.140;2024-03-25T13:29:04;27.80;29.90
73576;DHT22;61859;49.204;8.140;2024-03-25T13:31:30;28.00;30.40
73576;DHT22;61859;49.204;8.140;2024-03-25T13:33:56;28.20;30.30
73576;DHT22;61859;49.204;8.140;2024-03-25T13:36:21;27.40;30.20
73576;DHT22;61859;49.204;8.140;2024-03-25T13:38:47;26.50;30.80
73576;DHT22;61859;49.204;8.140;2024-03-25T13:41:12;26.30;30.90
73576;DHT22;61859;49.204;8.140;2024-03-25T13:43:44;26.20;30.40
73576;DHT22;61859;49.204;8.140;2024-03-25T13:46:10;26.40;30.80
73576;DHT22;61859;49.204;8.140;2024-03-25T13:48:37;26.40;30.90
73576;DHT22;61859;49.204;8.140;2024-03-25T13:51:03;26.60;31.00
73576;DHT22;61859;49.204;8.140;2024-03-25T13:53:29;26.90;30.70
73576;DHT22;61859;49.204;8.140;2024-03-25T13:55:54;27.30;30.70
73576;DHT22;61859;49.204;8.140;2024-03-25T13:58:20;27.50;30.10
73576;DHT22;61859;49.204;8.140;2024-03-25T14:00:46;27.70;30.20
73576;DHT22;61859;49.204;8.140;2024-03-25T14:03:11;27.10;30.10
73576;DHT22;61859;49.204;8.140;2024-03-25T14:05:37;26.70;30.70
73576;DHT22;61859;49.204;8.140;2024-03-25T14:08:03;25.90;30.70
73576;DHT22;61859;49.204;8.140;2024-03-25T14:10:28;25.60;30.60
73576;DHT22;61859;49.204;8.140;2024-03-25T14:12:55;25.90;30.00
73576;DHT22;61859;49.204;8.140;2024-03-25T14:15:21;26.30;30.30
73576;DHT22;61859;49.204;8.140;2024-03-25T14:17:46;26.90;29.80
73576;DHT22;61859;49.204;8.140;2024-03-25T14:20:12;27.50;29.70
73576;DHT22;61859;49.204;8.140;2024-03-25T14:22:37;27.40;29.70
73576;DHT22;61859;49.204;8.140;2024-03-25T14:25:03;26.90;29.30
73576;DHT22;61859;49.204;8.140;2024-03-25T14:27:29;26.90;30.30
73576;DHT22;61859;49.204;8.140;2024-03-25T14:29:55;26.70;29.80
73576;DHT22;61859;49.204;8.140;2024-03-25T14:32:21;26.60;29.80
73576;DHT22;61859;49.204;8.140;2024-03-25T14:34:48;26.80;29.90
73576;DHT22;61859;49.204;8.140;2024-03-25T14:37:14;27.10;30.20
73576;DHT22;61859;49.204;8.140;2024-03-25T14:39:40;27.10;29.70
73576;DHT22;61859;49.204;8.140;2024-03-25T14:42:08;26.60;30.10
73576;DHT22;61859;49.204;8.140;2024-03-25T14:44:35;26.10;30.10
73576;DHT22;61859;49.204;8.140;2024-03-25T14:47:01;26.00;30.60
73576;DHT22;61859;49.204;8.140;2024-03-25T14:49:26;25.50;30.60
73576;DHT22;61859;49.204;8.140;2024-03-25T14:51:52;25.00;31.50
73576;DHT22;61859;49.204;8.140;2024-03-25T14:54:18;24.60;31.60
73576;DHT22;61859;49.204;8.140;2024-03-25T14:56:47;24.80;30.90
73576;DHT22;61859;49.204;8.140;2024-03-25T14:59:13;25.10;31.10
73576;DHT22;61859;49.204;8.140;2024-03-25T15:01:39;25.40;30.80
73576;DHT22;61859;49.204;8.140;2024-03-25T15:04:05;25.70;30.50
73576;DHT22;61859;49.204;8.140;2024-03-25T15:06:31;25.70;30.80
73576;DHT22;61859;49.204;8.140;2024-03-25T15:08:58;25.50;30.80
73576;DHT22;61859;49.204;8.140;2024-03-25T15:11:24;25.40;30.70
73576;DHT22;61859;49.204;8.140;2024-03-25T15:13:54;25.70;31.00
73576;DHT22;61859;49.204;8.140;2024-03-25T15:16:20;26.30;30.50
73576;DHT22;61859;49.204;8.140;2024-03-25T15:18:45;26.60;30.60
73576;DHT22;61859;49.204;8.140;2024-03-25T15:21:11;26.50;30.70
73576;DHT22;61859;49.204;8.140;2024-03-25T15:23:37;26.50;30.30
73576;DHT22;61859;49.204;8.140;2024-03-25T15:26:03;26.70;30.30
73576;DHT22;61859;49.204;8.140;2024-03-25T15:28:28;27.00;29.40
73576;DHT22;61859;49.204;8.140;2024-03-25T15:30:55;26.70;29.90
73576;DHT22;61859;49.204;8.140;2024-03-25T15:33:21;26.70;30.60
73576;DHT22;61859;49.204;8.140;2024-03-25T15:35:48;26.60;29.90
73576;DHT22;61859;49.204;8.140;2024-03-25T15:38:14;25.90;30.10